sensor_id;sensor_type;location;lat;lon;timestamp;temperature;humidity
296;DHT22;132;48.770;9.200;2022-07-29T00:00:59;19.90;1.00
296;DHT22;132;48.770;9.200;2022-07-29T00:03:46;19.80;1.00
296;DHT22;132;48.770;9.200;2022-07-29T00:06:33;19.80;1.00
296;DHT22;132;48.770;9.200;2022-07-29T00:09:19;19.80;1.00
296;DHT22;132;48.770;9.200;2022-07-29T00:12:06;19.70;1.00
296;DHT22;132;48.770;9.200;2022-07-29T00:14:54;19.80;1.00
296;DHT22;132;48.770;9.200;2022-07-29T00:17:40;20.80;1.00
296;DHT22;132;48.770;9.200;2022-07-29T00:20:27;19.70;1.00
296;DHT22;132;48.770;9.200;2022-07-29T00:23:14;19.70;1.00
296;DHT22;132;48.770;9.200;2022-07-29T00:26:00;19.70;1.00
296;DHT22;132;48.770;9.200;2022-07-29T00:28:47;19.70;1.00
296;DHT22;132;48.770;9.200;2022-07-29T00:31:33;19.70;1.00
296;DHT22;132;48.770;9.200;2022-07-29T00:34:20;19.70;1.00
296;DHT22;132;48.770;9.200;2022-07-29T00:37:25;19.60;1.00
296;DHT22;132;48.770;9.200;2022-07-29T00:40:12;19.60;1.00
296;DHT22;132;48.770;9.200;2022-07-29T00:42:59;19.60;1.00
296;DHT22;132;48.770;9.200;2022-07-29T00:45:46;19.50;1.00
296;DHT22;132;48.770;9.200;2022-07-29T00:48:32;19.50;1.00
296;DHT22;132;48.770;9.200;2022-07-29T00:51:19;19.50;1.00
296;DHT22;132;48.770;9.200;2022-07-29T00:54:06;19.50;1.00
296;DHT22;132;48.770;9.200;2022-07-29T00:56:53;19.50;1.00
296;DHT22;132;48.770;9.200;2022-07-29T00:59:40;19.50;1.00
296;DHT22;132;48.770;9.200;2022-07-29T01:02:27;19.50;1.00
296;DHT22;132;48.770;9.200;2022-07-29T01:05:16;19.50;1.00
296;DHT22;132;48.770;9.200;2022-07-29T01:08:04;19.50;1.00
296;DHT22;132;48.770;9.200;2022-07-29T01:10:51;19.50;1.00
296;DHT22;132;48.770;9.200;2022-07-29T01:13:38;19.50;1.00
296;DHT22;132;48.770;9.200;2022-07-29T01:16:32;19.50;1.00
296;DHT22;132;48.770;9.200;2022-07-29T01:22:38;19.50;1.00
296;DHT22;132;48.770;9.200;2022-07-29T01:29:03;19.50;1.00
296;DHT22;132;48.770;9.200;2022-07-29T01:35:04;19.50;1.00
296;DHT22;132;48.770;9.200;2022-07-29T01:40:52;19.40;1.00
296;DHT22;132;48.770;9.200;2022-07-29T01:44:01;19.40;1.00
296;DHT22;132;48.770;9.200;2022-07-29T01:47:00;19.30;1.00
296;DHT22;132;48.770;9.200;2022-07-29T01:49:51;19.30;1.00
296;DHT22;132;48.770;9.200;2022-07-29T01:52:45;19.30;1.00
296;DHT22;132;48.770;9.200;2022-07-29T01:55:37;19.20;1.00
296;DHT22;132;48.770;9.200;2022-07-29T01:58:25;19.30;1.00
296;DHT22;132;48.770;9.200;2022-07-29T02:01:13;19.20;1.00
296;DHT22;132;48.770;9.200;2022-07-29T02:04:05;19.20;1.00
296;DHT22;132;48.770;9.200;2022-07-29T02:06:54;19.20;1.00
296;DHT22;132;48.770;9.200;2022-07-29T02:09:44;19.10;1.00
296;DHT22;132;48.770;9.200;2022-07-29T02:12:32;19.10;1.00
296;DHT22;132;48.770;9.200;2022-07-29T02:15:26;19.10;1.00
296;DHT22;132;48.770;9.200;2022-07-29T02:18:17;19.10;1.00
296;DHT22;132;48.770;9.200;2022-07-29T02:21:05;19.10;1.00
296;DHT22;132;48.770;9.200;2022-07-29T02:23:52;19.00;1.00
296;DHT22;132;48.770;9.200;2022-07-29T02:26:41;19.00;1.00
296;DHT22;132;48.770;9.200;2022-07-29T02:29:30;19.00;1.00
296;DHT22;132;48.770;9.200;2022-07-29T02:32:20;19.10;1.00
296;DHT22;132;48.770;9.200;2022-07-29T02:35:08;19.10;1.00
296;DHT22;132;48.770;9.200;2022-07-29T02:37:55;19.00;1.00
296;DHT22;132;48.770;9.200;2022-07-29T02:41:03;19.00;1.00
296;DHT22;132;48.770;9.200;2022-07-29T02:43:56;19.00;1.00
296;DHT22;132;48.770;9.200;2022-07-29T02:46:52;19.00;1.00
296;DHT22;132;48.770;9.200;2022-07-29T02:49:50;18.90;1.00
296;DHT22;132;48.770;9.200;2022-07-29T02:52:44;18.90;1.00
296;DHT22;132;48.770;9.200;2022-07-29T02:55:55;18.90;1.00
296;DHT22;132;48.770;9.200;2022-07-29T02:58:51;18.90;1.00
296;DHT22;132;48.770;9.200;2022-07-29T03:01:42;18.90;1.00
296;DHT22;132;48.770;9.200;2022-07-29T03:04:30;18.90;1.00
296;DHT22;132;48.770;9.200;2022-07-29T03:07:19;18.90;1.00
296;DHT22;132;48.770;9.200;2022-07-29T03:10:07;18.90;1.00
296;DHT22;132;48.770;9.200;2022-07-29T03:12:55;18.90;1.00
296;DHT22;132;48.770;9.200;2022-07-29T03:15:43;18.90;1.00
296;DHT22;132;48.770;9.200;2022-07-29T03:18:31;18.90;1.00
296;DHT22;132;48.770;9.200;2022-07-29T03:21:18;18.90;1.00
296;DHT22;132;48.770;9.200;2022-07-29T03:24:04;18.90;1.00
296;DHT22;132;48.770;9.200;2022-07-29T03:26:51;18.90;1.00
296;DHT22;132;48.770;9.200;2022-07-29T03:29:38;18.90;1.00
296;DHT22;132;48.770;9.200;2022-07-29T03:32:24;18.90;1.00
296;DHT22;132;48.770;9.200;2022-07-29T03:35:11;18.90;1.00
296;DHT22;132;48.770;9.200;2022-07-29T03:37:58;18.90;1.00
296;DHT22;132;48.770;9.200;2022-07-29T03:40:49;18.80;1.00
296;DHT22;132;48.770;9.200;2022-07-29T03:43:39;18.70;1.00
296;DHT22;132;48.770;9.200;2022-07-29T03:46:28;18.80;1.00
296;DHT22;132;48.770;9.200;2022-07-29T03:49:17;18.80;1.00
296;DHT22;132;48.770;9.200;2022-07-29T03:52:05;18.70;1.00
296;DHT22;132;48.770;9.200;2022-07-29T03:54:52;18.70;1.00
296;DHT22;132;48.770;9.200;2022-07-29T03:57:40;18.70;1.00
296;DHT22;132;48.770;9.200;2022-07-29T04:00:27;18.70;1.00
296;DHT22;132;48.770;9.200;2022-07-29T04:03:13;18.70;1.00
296;DHT22;132;48.770;9.200;2022-07-29T04:06:02;18.70;1.00
296;DHT22;132;48.770;9.200;2022-07-29T04:08:49;18.70;1.00
296;DHT22;132;48.770;9.200;2022-07-29T04:11:38;18.70;1.00
296;DHT22;132;48.770;9.200;2022-07-29T04:14:25;18.70;1.00
296;DHT22;132;48.770;9.200;2022-07-29T04:17:11;18.80;1.00
296;DHT22;132;48.770;9.200;2022-07-29T04:19:58;18.80;1.00
296;DHT22;132;48.770;9.200;2022-07-29T04:22:44;18.80;1.00
296;DHT22;132;48.770;9.200;2022-07-29T04:25:31;18.80;1.00
296;DHT22;132;48.770;9.200;2022-07-29T04:28:18;18.80;1.00
296;DHT22;132;48.770;9.200;2022-07-29T04:31:04;18.80;1.00
296;DHT22;132;48.770;9.200;2022-07-29T04:33:51;18.80;1.00
296;DHT22;132;48.770;9.200;2022-07-29T04:36:38;18.80;1.00
296;DHT22;132;48.770;9.200;2022-07-29T04:39:25;18.80;1.00
296;DHT22;132;48.770;9.200;2022-07-29T04:42:12;18.80;1.00
296;DHT22;132;48.770;9.200;2022-07-29T04:44:58;18.80;1.00
296;DHT22;132;48.770;9.200;2022-07-29T04:47:46;18.80;1.00
296;DHT22;132;48.770;9.200;2022-07-29T04:50:32;18.70;1.00
296;DHT22;132;48.770;9.200;2022-07-29T04:53:19;18.80;1.00
296;DHT22;132;48.770;9.200;2022-07-29T04:56:05;18.90;1.00
296;DHT22;132;48.770;9.200;2022-07-29T04:58:52;18.90;1.00
296;DHT22;132;48.770;9.200;2022-07-29T05:01:39;19.00;1.00
296;DHT22;132;48.770;9.200;2022-07-29T05:04:25;19.00;1.00
296;DHT22;132;48.770;9.200;2022-07-29T05:07:12;19.10;1.00
296;DHT22;132;48.770;9.200;2022-07-29T05:09:59;19.20;1.00
296;DHT22;132;48.770;9.200;2022-07-29T05:12:45;19.20;1.00
296;DHT22;132;48.770;9.200;2022-07-29T05:15:34;19.40;1.00
296;DHT22;132;48.770;9.200;2022-07-29T05:18:20;19.40;1.00
296;DHT22;132;48.770;9.200;2022-07-29T05:21:07;19.40;1.00
296;DHT22;132;48.770;9.200;2022-07-29T05:23:54;19.50;1.00
296;DHT22;132;48.770;9.200;2022-07-29T05:26:40;19.60;1.00
296;DHT22;132;48.770;9.200;2022-07-29T05:29:27;19.60;1.00
296;DHT22;132;48.770;9.200;2022-07-29T05:32:13;19.80;1.00
296;DHT22;132;48.770;9.200;2022-07-29T05:35:00;19.80;1.00
296;DHT22;132;48.770;9.200;2022-07-29T05:37:47;20.00;1.00
296;DHT22;132;48.770;9.200;2022-07-29T05:40:33;20.10;1.00
296;DHT22;132;48.770;9.200;2022-07-29T05:43:20;20.20;1.00
296;DHT22;132;48.770;9.200;2022-07-29T05:46:07;20.30;1.00
296;DHT22;132;48.770;9.200;2022-07-29T05:48:53;20.40;1.00
296;DHT22;132;48.770;9.200;2022-07-29T05:51:40;20.50;1.00
296;DHT22;132;48.770;9.200;2022-07-29T05:54:27;20.70;1.00
296;DHT22;132;48.770;9.200;2022-07-29T05:57:17;20.70;1.00
296;DHT22;132;48.770;9.200;2022-07-29T06:00:04;20.80;1.00
296;DHT22;132;48.770;9.200;2022-07-29T06:02:58;21.00;1.00
296;DHT22;132;48.770;9.200;2022-07-29T06:05:45;21.10;1.00
296;DHT22;132;48.770;9.200;2022-07-29T06:08:32;21.30;1.00
296;DHT22;132;48.770;9.200;2022-07-29T06:11:20;21.50;1.00
296;DHT22;132;48.770;9.200;2022-07-29T06:14:06;21.60;1.00
296;DHT22;132;48.770;9.200;2022-07-29T06:16:53;21.80;1.00
296;DHT22;132;48.770;9.200;2022-07-29T06:19:39;22.00;1.00
296;DHT22;132;48.770;9.200;2022-07-29T06:22:26;22.00;1.00
296;DHT22;132;48.770;9.200;2022-07-29T06:25:13;22.10;1.00
296;DHT22;132;48.770;9.200;2022-07-29T06:27:59;22.30;1.00
296;DHT22;132;48.770;9.200;2022-07-29T06:30:46;22.60;1.00
296;DHT22;132;48.770;9.200;2022-07-29T06:33:32;22.50;1.00
296;DHT22;132;48.770;9.200;2022-07-29T06:36:19;22.70;1.00
296;DHT22;132;48.770;9.200;2022-07-29T06:39:07;22.90;1.00
296;DHT22;132;48.770;9.200;2022-07-29T06:41:53;23.00;1.00
296;DHT22;132;48.770;9.200;2022-07-29T06:44:44;23.10;1.00
296;DHT22;132;48.770;9.200;2022-07-29T06:47:31;23.20;1.00
296;DHT22;132;48.770;9.200;2022-07-29T06:50:17;23.30;1.00
296;DHT22;132;48.770;9.200;2022-07-29T06:53:04;23.30;1.00
296;DHT22;132;48.770;9.200;2022-07-29T06:55:51;23.30;1.00
296;DHT22;132;48.770;9.200;2022-07-29T06:58:38;23.20;1.00
296;DHT22;132;48.770;9.200;2022-07-29T07:01:24;23.20;1.00
296;DHT22;132;48.770;9.200;2022-07-29T07:04:11;23.20;1.00
296;DHT22;132;48.770;9.200;2022-07-29T07:06:58;23.30;1.00
296;DHT22;132;48.770;9.200;2022-07-29T07:09:45;23.50;1.00
296;DHT22;132;48.770;9.200;2022-07-29T07:12:32;23.60;1.00
296;DHT22;132;48.770;9.200;2022-07-29T07:15:19;23.60;1.00
296;DHT22;132;48.770;9.200;2022-07-29T07:18:08;23.70;1.00
296;DHT22;132;48.770;9.200;2022-07-29T07:20:56;23.80;1.00
296;DHT22;132;48.770;9.200;2022-07-29T07:23:42;23.90;1.00
296;DHT22;132;48.770;9.200;2022-07-29T07:26:29;23.90;1.00
296;DHT22;132;48.770;9.200;2022-07-29T07:29:16;24.00;1.00
296;DHT22;132;48.770;9.200;2022-07-29T07:32:02;24.00;1.00
296;DHT22;132;48.770;9.200;2022-07-29T07:34:49;23.90;1.00
296;DHT22;132;48.770;9.200;2022-07-29T07:37:36;23.70;1.00
296;DHT22;132;48.770;9.200;2022-07-29T07:40:24;23.60;1.00
296;DHT22;132;48.770;9.200;2022-07-29T07:43:10;23.60;1.00
296;DHT22;132;48.770;9.200;2022-07-29T07:45:57;23.60;1.00
296;DHT22;132;48.770;9.200;2022-07-29T07:48:43;23.70;1.00
296;DHT22;132;48.770;9.200;2022-07-29T07:51:30;23.80;1.00
296;DHT22;132;48.770;9.200;2022-07-29T07:54:17;24.00;1.00
296;DHT22;132;48.770;9.200;2022-07-29T07:57:03;24.10;1.00
296;DHT22;132;48.770;9.200;2022-07-29T07:59:50;24.30;1.00
296;DHT22;132;48.770;9.200;2022-07-29T08:02:37;24.30;1.00
296;DHT22;132;48.770;9.200;2022-07-29T08:05:24;24.40;1.00
296;DHT22;132;48.770;9.200;2022-07-29T08:08:10;24.40;1.00
296;DHT22;132;48.770;9.200;2022-07-29T08:10:57;24.50;1.00
296;DHT22;132;48.770;9.200;2022-07-29T08:13:45;24.60;1.00
296;DHT22;132;48.770;9.200;2022-07-29T08:16:33;24.70;1.00
296;DHT22;132;48.770;9.200;2022-07-29T08:19:19;24.80;1.00
296;DHT22;132;48.770;9.200;2022-07-29T08:22:06;24.90;1.00
296;DHT22;132;48.770;9.200;2022-07-29T08:24:53;25.00;1.00
296;DHT22;132;48.770;9.200;2022-07-29T08:27:40;24.90;1.00
296;DHT22;132;48.770;9.200;2022-07-29T08:30:27;24.90;1.00
296;DHT22;132;48.770;9.200;2022-07-29T08:33:13;24.80;1.00
296;DHT22;132;48.770;9.200;2022-07-29T08:36:00;24.80;1.00
296;DHT22;132;48.770;9.200;2022-07-29T08:38:47;24.70;1.00
296;DHT22;132;48.770;9.200;2022-07-29T08:41:35;24.70;1.00
296;DHT22;132;48.770;9.200;2022-07-29T08:44:22;24.70;1.00
296;DHT22;132;48.770;9.200;2022-07-29T08:47:09;24.80;1.00
296;DHT22;132;48.770;9.200;2022-07-29T08:49:56;24.70;1.00
296;DHT22;132;48.770;9.200;2022-07-29T08:52:43;24.80;1.00
296;DHT22;132;48.770;9.200;2022-07-29T08:55:30;24.70;1.00
296;DHT22;132;48.770;9.200;2022-07-29T08:58:17;24.70;1.00
296;DHT22;132;48.770;9.200;2022-07-29T09:01:04;24.70;1.00
296;DHT22;132;48.770;9.200;2022-07-29T09:03:55;24.80;1.00
296;DHT22;132;48.770;9.200;2022-07-29T09:06:47;25.00;1.00
296;DHT22;132;48.770;9.200;2022-07-29T09:09:34;25.10;1.00
296;DHT22;132;48.770;9.200;2022-07-29T09:12:21;25.20;1.00
296;DHT22;132;48.770;9.200;2022-07-29T09:15:09;25.30;1.00
296;DHT22;132;48.770;9.200;2022-07-29T09:17:55;25.30;1.00
296;DHT22;132;48.770;9.200;2022-07-29T09:20:51;25.30;1.00
296;DHT22;132;48.770;9.200;2022-07-29T09:24:11;25.30;1.00
296;DHT22;132;48.770;9.200;2022-07-29T09:26:58;25.30;1.00
296;DHT22;132;48.770;9.200;2022-07-29T09:29:45;25.40;1.00
296;DHT22;132;48.770;9.200;2022-07-29T09:32:33;25.40;1.00
296;DHT22;132;48.770;9.200;2022-07-29T09:35:39;25.30;1.00
296;DHT22;132;48.770;9.200;2022-07-29T09:38:27;25.30;1.00
296;DHT22;132;48.770;9.200;2022-07-29T09:41:13;25.50;1.00
296;DHT22;132;48.770;9.200;2022-07-29T09:44:00;25.50;1.00
296;DHT22;132;48.770;9.200;2022-07-29T09:47:02;25.80;1.00
296;DHT22;132;48.770;9.200;2022-07-29T09:49:58;26.00;1.00
296;DHT22;132;48.770;9.200;2022-07-29T09:52:50;26.20;1.00
296;DHT22;132;48.770;9.200;2022-07-29T09:55:50;26.40;1.00
296;DHT22;132;48.770;9.200;2022-07-29T09:58:37;26.60;1.00
296;DHT22;132;48.770;9.200;2022-07-29T10:01:29;26.60;1.00
296;DHT22;132;48.770;9.200;2022-07-29T10:04:16;26.60;1.00
296;DHT22;132;48.770;9.200;2022-07-29T10:07:03;26.60;1.00
296;DHT22;132;48.770;9.200;2022-07-29T10:09:55;26.80;1.00
296;DHT22;132;48.770;9.200;2022-07-29T10:13:10;26.80;1.00
296;DHT22;132;48.770;9.200;2022-07-29T10:15:57;27.00;1.00
296;DHT22;132;48.770;9.200;2022-07-29T10:18:44;27.10;1.00
296;DHT22;132;48.770;9.200;2022-07-29T10:21:31;27.30;1.00
296;DHT22;132;48.770;9.200;2022-07-29T10:24:19;27.30;1.00
296;DHT22;132;48.770;9.200;2022-07-29T10:27:07;27.30;1.00
296;DHT22;132;48.770;9.200;2022-07-29T10:29:54;27.10;1.00
296;DHT22;132;48.770;9.200;2022-07-29T10:32:49;27.00;1.00
296;DHT22;132;48.770;9.200;2022-07-29T10:42:15;26.30;1.00
296;DHT22;132;48.770;9.200;2022-07-29T10:45:04;25.90;1.00
296;DHT22;132;48.770;9.200;2022-07-29T10:48:03;25.60;1.00
296;DHT22;132;48.770;9.200;2022-07-29T10:51:03;25.30;1.00
296;DHT22;132;48.770;9.200;2022-07-29T10:53:51;24.60;1.00
296;DHT22;132;48.770;9.200;2022-07-29T10:56:39;24.20;1.00
296;DHT22;132;48.770;9.200;2022-07-29T10:59:26;23.70;1.00
296;DHT22;132;48.770;9.200;2022-07-29T11:05:20;22.30;1.00
296;DHT22;132;48.770;9.200;2022-07-29T11:14:05;21.00;1.00
296;DHT22;132;48.770;9.200;2022-07-29T11:16:59;20.70;1.00
296;DHT22;132;48.770;9.200;2022-07-29T11:19:48;20.40;1.00
296;DHT22;132;48.770;9.200;2022-07-29T11:22:35;20.20;1.00
296;DHT22;132;48.770;9.200;2022-07-29T11:25:23;20.30;1.00
296;DHT22;132;48.770;9.200;2022-07-29T11:28:16;20.10;1.00
296;DHT22;132;48.770;9.200;2022-07-29T11:31:03;20.00;1.00
296;DHT22;132;48.770;9.200;2022-07-29T11:33:51;20.00;1.00
296;DHT22;132;48.770;9.200;2022-07-29T11:42:45;19.80;1.00
296;DHT22;132;48.770;9.200;2022-07-29T11:45:46;19.90;1.00
296;DHT22;132;48.770;9.200;2022-07-29T11:48:32;19.90;1.00
296;DHT22;132;48.770;9.200;2022-07-29T11:51:19;20.00;1.00
296;DHT22;132;48.770;9.200;2022-07-29T11:54:08;20.00;1.00
296;DHT22;132;48.770;9.200;2022-07-29T11:56:58;20.10;1.00
296;DHT22;132;48.770;9.200;2022-07-29T11:59:46;20.30;1.00
296;DHT22;132;48.770;9.200;2022-07-29T12:02:40;20.30;1.00
296;DHT22;132;48.770;9.200;2022-07-29T12:05:46;20.20;1.00
296;DHT22;132;48.770;9.200;2022-07-29T12:08:40;20.20;1.00
296;DHT22;132;48.770;9.200;2022-07-29T12:11:27;20.30;1.00
296;DHT22;132;48.770;9.200;2022-07-29T12:14:44;20.50;1.00
296;DHT22;132;48.770;9.200;2022-07-29T12:17:34;20.80;1.00
296;DHT22;132;48.770;9.200;2022-07-29T12:20:28;21.00;1.00
296;DHT22;132;48.770;9.200;2022-07-29T12:23:15;21.10;1.00
296;DHT22;132;48.770;9.200;2022-07-29T12:26:06;21.10;1.00
296;DHT22;132;48.770;9.200;2022-07-29T12:28:52;21.10;1.00
296;DHT22;132;48.770;9.200;2022-07-29T12:31:39;21.10;1.00
296;DHT22;132;48.770;9.200;2022-07-29T12:34:27;21.00;1.00
296;DHT22;132;48.770;9.200;2022-07-29T12:37:14;20.90;1.00
296;DHT22;132;48.770;9.200;2022-07-29T12:40:02;20.70;1.00
296;DHT22;132;48.770;9.200;2022-07-29T12:43:12;20.70;1.00
296;DHT22;132;48.770;9.200;2022-07-29T12:46:12;20.70;1.00
296;DHT22;132;48.770;9.200;2022-07-29T12:48:59;20.60;1.00
296;DHT22;132;48.770;9.200;2022-07-29T12:51:45;20.50;1.00
296;DHT22;132;48.770;9.200;2022-07-29T12:54:32;20.50;1.00
296;DHT22;132;48.770;9.200;2022-07-29T12:57:19;20.40;1.00
296;DHT22;132;48.770;9.200;2022-07-29T13:00:11;20.20;1.00
296;DHT22;132;48.770;9.200;2022-07-29T13:03:00;20.10;1.00
296;DHT22;132;48.770;9.200;2022-07-29T13:05:47;20.00;1.00
296;DHT22;132;48.770;9.200;2022-07-29T13:08:34;20.00;1.00
296;DHT22;132;48.770;9.200;2022-07-29T13:11:37;20.00;1.00
296;DHT22;132;48.770;9.200;2022-07-29T13:14:34;20.00;1.00
296;DHT22;132;48.770;9.200;2022-07-29T13:17:22;20.00;1.00
296;DHT22;132;48.770;9.200;2022-07-29T13:20:11;20.30;1.00
296;DHT22;132;48.770;9.200;2022-07-29T13:23:01;20.00;1.00
296;DHT22;132;48.770;9.200;2022-07-29T13:25:47;20.00;1.00
296;DHT22;132;48.770;9.200;2022-07-29T13:28:34;19.90;1.00
296;DHT22;132;48.770;9.200;2022-07-29T13:31:21;19.90;1.00
296;DHT22;132;48.770;9.200;2022-07-29T13:34:08;19.80;1.00
296;DHT22;132;48.770;9.200;2022-07-29T13:36:54;19.80;1.00
296;DHT22;132;48.770;9.200;2022-07-29T13:39:41;19.80;1.00
296;DHT22;132;48.770;9.200;2022-07-29T13:42:28;19.80;1.00
296;DHT22;132;48.770;9.200;2022-07-29T13:45:15;19.90;1.00
296;DHT22;132;48.770;9.200;2022-07-29T13:48:02;20.00;1.00
296;DHT22;132;48.770;9.200;2022-07-29T13:50:48;20.00;1.00
296;DHT22;132;48.770;9.200;2022-07-29T13:53:35;20.10;1.00
296;DHT22;132;48.770;9.200;2022-07-29T13:56:22;20.30;1.00
296;DHT22;132;48.770;9.200;2022-07-29T13:59:08;20.40;1.00
296;DHT22;132;48.770;9.200;2022-07-29T14:01:55;20.70;1.00
296;DHT22;132;48.770;9.200;2022-07-29T14:04:42;21.00;1.00
296;DHT22;132;48.770;9.200;2022-07-29T14:07:28;21.20;1.00
296;DHT22;132;48.770;9.200;2022-07-29T14:10:15;21.40;1.00
296;DHT22;132;48.770;9.200;2022-07-29T14:13:01;21.60;1.00
296;DHT22;132;48.770;9.200;2022-07-29T14:15:48;21.80;1.00
296;DHT22;132;48.770;9.200;2022-07-29T14:18:35;22.00;1.00
296;DHT22;132;48.770;9.200;2022-07-29T14:21:21;22.10;1.00
296;DHT22;132;48.770;9.200;2022-07-29T14:24:08;22.20;1.00
296;DHT22;132;48.770;9.200;2022-07-29T14:26:55;22.30;1.00
296;DHT22;132;48.770;9.200;2022-07-29T14:29:41;22.40;1.00
296;DHT22;132;48.770;9.200;2022-07-29T14:32:28;22.40;1.00
296;DHT22;132;48.770;9.200;2022-07-29T14:35:15;22.50;1.00
296;DHT22;132;48.770;9.200;2022-07-29T14:38:02;22.50;1.00
296;DHT22;132;48.770;9.200;2022-07-29T14:40:48;22.50;1.00
296;DHT22;132;48.770;9.200;2022-07-29T14:43:35;22.50;1.00
296;DHT22;132;48.770;9.200;2022-07-29T14:46:22;22.50;1.00
296;DHT22;132;48.770;9.200;2022-07-29T14:49:08;22.50;1.00
296;DHT22;132;48.770;9.200;2022-07-29T14:51:55;22.60;1.00
296;DHT22;132;48.770;9.200;2022-07-29T14:54:41;22.50;1.00
296;DHT22;132;48.770;9.200;2022-07-29T14:57:28;22.50;1.00
296;DHT22;132;48.770;9.200;2022-07-29T15:00:16;22.50;1.00
296;DHT22;132;48.770;9.200;2022-07-29T15:03:03;22.50;1.00
296;DHT22;132;48.770;9.200;2022-07-29T15:05:50;22.60;1.00
296;DHT22;132;48.770;9.200;2022-07-29T15:08:37;22.60;1.00
296;DHT22;132;48.770;9.200;2022-07-29T15:11:24;22.70;1.00
296;DHT22;132;48.770;9.200;2022-07-29T15:14:11;22.80;1.00
296;DHT22;132;48.770;9.200;2022-07-29T15:16:58;22.80;1.00
296;DHT22;132;48.770;9.200;2022-07-29T15:19:45;22.80;1.00
296;DHT22;132;48.770;9.200;2022-07-29T15:22:31;22.90;1.00
296;DHT22;132;48.770;9.200;2022-07-29T15:25:18;22.90;1.00
296;DHT22;132;48.770;9.200;2022-07-29T15:28:05;22.80;1.00
296;DHT22;132;48.770;9.200;2022-07-29T15:30:55;22.80;1.00
296;DHT22;132;48.770;9.200;2022-07-29T15:33:41;22.70;1.00
296;DHT22;132;48.770;9.200;2022-07-29T15:36:28;22.70;1.00
296;DHT22;132;48.770;9.200;2022-07-29T15:39:15;22.70;1.00
296;DHT22;132;48.770;9.200;2022-07-29T15:42:02;22.70;1.00
296;DHT22;132;48.770;9.200;2022-07-29T15:44:49;22.60;1.00
296;DHT22;132;48.770;9.200;2022-07-29T15:47:35;22.60;1.00
296;DHT22;132;48.770;9.200;2022-07-29T15:50:22;22.60;1.00
296;DHT22;132;48.770;9.200;2022-07-29T15:53:09;22.60;1.00
296;DHT22;132;48.770;9.200;2022-07-29T15:55:55;22.70;1.00
296;DHT22;132;48.770;9.200;2022-07-29T15:58:42;22.70;1.00
296;DHT22;132;48.770;9.200;2022-07-29T16:01:28;22.70;1.00
296;DHT22;132;48.770;9.200;2022-07-29T16:04:15;22.80;1.00
296;DHT22;132;48.770;9.200;2022-07-29T16:07:02;22.80;1.00
296;DHT22;132;48.770;9.200;2022-07-29T16:09:49;22.70;1.00
296;DHT22;132;48.770;9.200;2022-07-29T16:12:36;22.80;1.00
296;DHT22;132;48.770;9.200;2022-07-29T16:15:22;22.70;1.00
296;DHT22;132;48.770;9.200;2022-07-29T16:18:09;22.70;1.00
296;DHT22;132;48.770;9.200;2022-07-29T16:20:56;22.80;1.00
296;DHT22;132;48.770;9.200;2022-07-29T16:23:43;22.80;1.00
296;DHT22;132;48.770;9.200;2022-07-29T16:26:29;22.90;1.00
296;DHT22;132;48.770;9.200;2022-07-29T16:29:16;22.90;1.00
296;DHT22;132;48.770;9.200;2022-07-29T16:32:05;22.90;1.00
296;DHT22;132;48.770;9.200;2022-07-29T16:34:51;23.00;1.00
296;DHT22;132;48.770;9.200;2022-07-29T16:37:38;22.90;1.00
296;DHT22;132;48.770;9.200;2022-07-29T16:40:25;22.80;1.00
296;DHT22;132;48.770;9.200;2022-07-29T16:43:11;22.80;1.00
296;DHT22;132;48.770;9.200;2022-07-29T16:45:58;22.80;1.00
296;DHT22;132;48.770;9.200;2022-07-29T16:48:45;22.80;1.00
296;DHT22;132;48.770;9.200;2022-07-29T16:51:31;22.70;1.00
296;DHT22;132;48.770;9.200;2022-07-29T16:54:18;22.60;1.00
296;DHT22;132;48.770;9.200;2022-07-29T16:57:05;22.60;1.00
296;DHT22;132;48.770;9.200;2022-07-29T16:59:51;22.50;1.00
296;DHT22;132;48.770;9.200;2022-07-29T17:02:38;22.40;1.00
296;DHT22;132;48.770;9.200;2022-07-29T17:05:26;22.40;1.00
296;DHT22;132;48.770;9.200;2022-07-29T17:08:12;22.40;1.00
296;DHT22;132;48.770;9.200;2022-07-29T17:10:59;22.40;1.00
296;DHT22;132;48.770;9.200;2022-07-29T17:13:46;22.40;1.00
296;DHT22;132;48.770;9.200;2022-07-29T17:16:33;22.40;1.00
296;DHT22;132;48.770;9.200;2022-07-29T17:19:20;22.40;1.00
296;DHT22;132;48.770;9.200;2022-07-29T17:22:07;22.40;1.00
296;DHT22;132;48.770;9.200;2022-07-29T17:24:54;22.40;1.00
296;DHT22;132;48.770;9.200;2022-07-29T17:27:41;22.50;1.00
296;DHT22;132;48.770;9.200;2022-07-29T17:30:28;22.50;1.00
296;DHT22;132;48.770;9.200;2022-07-29T17:33:15;22.60;1.00
296;DHT22;132;48.770;9.200;2022-07-29T17:36:01;22.70;1.00
296;DHT22;132;48.770;9.200;2022-07-29T17:39:08;22.70;1.00
296;DHT22;132;48.770;9.200;2022-07-29T17:41:56;22.70;1.00
296;DHT22;132;48.770;9.200;2022-07-29T17:44:43;22.70;1.00
296;DHT22;132;48.770;9.200;2022-07-29T17:47:29;22.80;1.00
296;DHT22;132;48.770;9.200;2022-07-29T17:50:16;22.80;1.00
296;DHT22;132;48.770;9.200;2022-07-29T17:53:03;23.10;1.00
296;DHT22;132;48.770;9.200;2022-07-29T17:55:49;22.90;1.00
296;DHT22;132;48.770;9.200;2022-07-29T17:58:37;23.00;1.00
296;DHT22;132;48.770;9.200;2022-07-29T18:01:23;23.00;1.00
296;DHT22;132;48.770;9.200;2022-07-29T18:04:10;23.00;1.00
296;DHT22;132;48.770;9.200;2022-07-29T18:06:56;23.00;1.00
296;DHT22;132;48.770;9.200;2022-07-29T18:09:43;23.00;1.00
296;DHT22;132;48.770;9.200;2022-07-29T18:12:30;23.00;1.00
296;DHT22;132;48.770;9.200;2022-07-29T18:15:17;23.00;1.00
296;DHT22;132;48.770;9.200;2022-07-29T18:18:03;23.00;1.00
296;DHT22;132;48.770;9.200;2022-07-29T18:20:50;23.00;1.00
296;DHT22;132;48.770;9.200;2022-07-29T18:23:37;23.00;1.00
296;DHT22;132;48.770;9.200;2022-07-29T18:26:23;22.90;1.00
296;DHT22;132;48.770;9.200;2022-07-29T18:29:10;22.90;1.00
296;DHT22;132;48.770;9.200;2022-07-29T18:31:57;22.80;1.00
296;DHT22;132;48.770;9.200;2022-07-29T18:34:45;22.70;1.00
296;DHT22;132;48.770;9.200;2022-07-29T18:37:31;22.60;1.00
296;DHT22;132;48.770;9.200;2022-07-29T18:40:20;22.60;1.00
296;DHT22;132;48.770;9.200;2022-07-29T18:43:09;22.50;1.00
296;DHT22;132;48.770;9.200;2022-07-29T18:45:55;22.40;1.00
296;DHT22;132;48.770;9.200;2022-07-29T18:48:42;22.30;1.00
296;DHT22;132;48.770;9.200;2022-07-29T18:51:28;22.20;1.00
296;DHT22;132;48.770;9.200;2022-07-29T18:54:16;22.10;1.00
296;DHT22;132;48.770;9.200;2022-07-29T18:57:02;22.00;1.00
296;DHT22;132;48.770;9.200;2022-07-29T18:59:50;21.90;1.00
296;DHT22;132;48.770;9.200;2022-07-29T19:02:39;21.80;1.00
296;DHT22;132;48.770;9.200;2022-07-29T19:05:26;21.70;1.00
296;DHT22;132;48.770;9.200;2022-07-29T19:08:12;21.60;1.00
296;DHT22;132;48.770;9.200;2022-07-29T19:10:59;21.50;1.00
296;DHT22;132;48.770;9.200;2022-07-29T19:13:46;21.50;1.00
296;DHT22;132;48.770;9.200;2022-07-29T19:16:32;21.40;1.00
296;DHT22;132;48.770;9.200;2022-07-29T19:19:19;21.30;1.00
296;DHT22;132;48.770;9.200;2022-07-29T19:22:06;21.20;1.00
296;DHT22;132;48.770;9.200;2022-07-29T19:24:52;21.10;1.00
296;DHT22;132;48.770;9.200;2022-07-29T19:27:39;21.10;1.00
296;DHT22;132;48.770;9.200;2022-07-29T19:30:26;21.00;1.00
296;DHT22;132;48.770;9.200;2022-07-29T19:33:13;21.00;1.00
296;DHT22;132;48.770;9.200;2022-07-29T19:36:02;20.90;1.00
296;DHT22;132;48.770;9.200;2022-07-29T19:38:49;20.90;1.00
296;DHT22;132;48.770;9.200;2022-07-29T19:41:36;21.00;1.00
296;DHT22;132;48.770;9.200;2022-07-29T19:44:23;21.00;1.00
296;DHT22;132;48.770;9.200;2022-07-29T19:47:09;21.00;1.00
296;DHT22;132;48.770;9.200;2022-07-29T19:49:56;21.00;1.00